Time;durP1;ratioP1;P1;durP2;ratioP2;P2;SDS_P1;SDS_P2;PMS_P1;PMS_P2;Temp;Humidity;BMP_temperature;BMP_pressure;BME280_temperature;BME280_humidity;BME280_pressure;Samples;Min_cycle;Max_cycle;Signal;HPM_P1;HPM_P2
2022/07/30 00:01:43;;;;;;;13.50;8.80;;;;;;;16.47;86.38;101647.53;5081201;28;20043;-83
2022/07/30 00:04:08;;;;;;;18.30;8.90;;;;;;;16.47;86.46;101655.75;5073450;28;20040;-83
2022/07/30 00:06:36;;;;;;;13.37;9.17;;;;;;;16.40;86.20;101655.00;5080850;28;21147;-83
2022/07/30 00:09:02;;;;;;;16.07;9.10;;;;;;;16.41;87.12;101659.41;5080433;28;20055;-83
2022/07/30 00:11:27;;;;;;;14.57;9.10;;;;;;;16.32;86.65;101645.22;5080397;28;20078;-83
2022/07/30 00:13:53;;;;;;;15.17;8.97;;;;;;;16.32;86.78;101653.41;5081193;28;20040;-83
2022/07/30 00:16:18;;;;;;;18.77;9.27;;;;;;;16.31;87.55;101659.97;5080720;28;20040;-83
2022/07/30 00:18:43;;;;;;;18.57;9.73;;;;;;;16.28;87.83;101650.31;5078250;28;20047;-83
2022/07/30 00:21:09;;;;;;;16.73;9.30;;;;;;;16.22;88.06;101647.69;5080264;28;20068;-83
2022/07/30 00:23:34;;;;;;;20.60;9.20;;;;;;;16.23;88.19;101652.91;5062519;28;20643;-83
2022/07/30 00:26:00;;;;;;;14.53;9.27;;;;;;;16.14;88.33;101652.41;5081201;28;20032;-83
2022/07/30 00:28:25;;;;;;;17.57;9.47;;;;;;;16.12;88.79;101646.31;5080336;28;20039;-83
2022/07/30 00:30:50;;;;;;;17.47;9.27;;;;;;;16.16;88.57;101652.16;5074418;28;20043;-83
2022/07/30 00:33:16;;;;;;;18.80;9.27;;;;;;;16.08;88.92;101647.00;5080945;28;20403;-84
2022/07/30 00:35:41;;;;;;;17.63;9.10;;;;;;;16.03;88.50;101647.69;5080600;28;21076;-83
2022/07/30 00:38:06;;;;;;;18.50;10.00;;;;;;;16.10;89.33;101648.47;5080859;28;21470;-83
2022/07/30 00:40:32;;;;;;;13.07;9.00;;;;;;;16.02;89.00;101652.31;5080217;28;20807;-83
2022/07/30 00:42:57;;;;;;;15.67;9.67;;;;;;;16.07;88.88;101648.91;5080507;28;20039;-83
2022/07/30 00:45:22;;;;;;;15.67;9.63;;;;;;;15.96;88.98;101641.47;5080378;28;20040;-83
2022/07/30 00:47:48;;;;;;;15.60;9.23;;;;;;;15.95;88.80;101648.84;5080724;28;20399;-83
2022/07/30 00:50:15;;;;;;;14.47;8.97;;;;;;;15.91;88.31;101644.03;5080362;28;20539;-83
2022/07/30 00:52:41;;;;;;;15.60;9.53;;;;;;;15.97;88.58;101648.63;5079934;28;20060;-83
2022/07/30 00:55:09;;;;;;;13.33;8.90;;;;;;;15.79;88.87;101647.50;5080312;28;20534;-83
2022/07/30 00:57:34;;;;;;;16.07;9.50;;;;;;;15.82;89.15;101640.78;5079722;28;20522;-83
2022/07/30 01:00:00;;;;;;;14.80;10.57;;;;;;;15.79;90.17;101647.50;5080264;28;20036;-83
2022/07/30 01:02:25;;;;;;;17.00;11.63;;;;;;;15.75;91.49;101653.66;5080132;28;20040;-83
2022/07/30 01:04:50;;;;;;;18.60;11.30;;;;;;;15.74;91.99;101643.81;5061843;28;20036;-83
2022/07/30 01:07:16;;;;;;;16.97;11.30;;;;;;;15.71;92.49;101647.81;5080730;28;20111;-83
2022/07/30 01:09:41;;;;;;;19.23;11.67;;;;;;;15.68;92.94;101638.19;5079955;28;20056;-83
2022/07/30 01:12:08;;;;;;;20.57;11.70;;;;;;;15.65;93.17;101643.25;5079942;28;20032;-83
2022/07/30 01:14:35;;;;;;;19.30;11.73;;;;;;;15.65;93.60;101644.09;5079787;28;20032;-83
2022/07/30 01:17:01;;;;;;;19.47;11.83;;;;;;;15.57;94.26;101633.47;5079367;28;20479;-83
2022/07/30 01:19:47;;;;;;;19.27;12.57;;;;;;;15.64;94.47;101645.16;5079748;28;20036;-83
2022/07/30 01:22:27;;;;;;;20.53;12.13;;;;;;;15.65;94.65;101638.63;5079044;28;20387;-83
2022/07/30 01:25:00;;;;;;;19.20;11.67;;;;;;;15.60;94.35;101643.94;5079697;28;20376;-83
2022/07/30 01:27:28;;;;;;;17.17;11.47;;;;;;;15.54;94.00;101639.38;5079224;28;20553;-83
2022/07/30 01:29:55;;;;;;;16.90;11.40;;;;;;;15.50;93.05;101638.16;5071728;28;20039;-83
2022/07/30 01:32:22;;;;;;;16.13;10.83;;;;;;;15.46;93.06;101631.47;5079934;28;20063;-83
2022/07/30 01:34:50;;;;;;;18.23;11.30;;;;;;;15.50;92.60;101638.16;5061227;28;20063;-83
2022/07/30 01:37:17;;;;;;;15.77;10.93;;;;;;;15.39;91.91;101633.44;5078218;28;21669;-83
2022/07/30 01:39:43;;;;;;;18.17;11.03;;;;;;;15.32;92.73;101628.84;5078196;28;20031;-82
2022/07/30 01:42:12;;;;;;;14.87;10.47;;;;;;;15.28;92.39;101630.38;5078840;28;20225;-83
2022/07/30 01:44:39;;;;;;;16.20;10.70;;;;;;;15.27;92.35;101628.72;5079255;28;20312;-83
2022/07/30 01:47:07;;;;;;;19.97;12.33;;;;;;;15.38;94.48;101637.22;5079029;28;20055;-83
2022/07/30 01:49:35;;;;;;;15.90;10.70;;;;;;;15.27;93.45;101638.78;5079059;28;20031;-83
2022/07/30 01:52:02;;;;;;;18.40;12.90;;;;;;;15.30;95.32;101633.72;5079114;28;21316;-83
2022/07/30 01:54:30;;;;;;;17.83;11.33;;;;;;;15.12;94.93;101630.94;5078992;28;20057;-83
2022/07/30 01:56:58;;;;;;;14.97;11.27;;;;;;;15.09;94.81;101628.66;5078788;28;20032;-82
2022/07/30 01:59:27;;;;;;;18.47;11.97;;;;;;;15.09;95.35;101636.84;5078788;28;20432;-83
2022/07/30 02:01:52;;;;;;;20.23;13.20;;;;;;;15.16;96.10;101646.66;5079198;28;20028;-82
2022/07/30 02:04:18;;;;;;;19.10;12.93;;;;;;;15.12;96.07;101644.59;5078799;28;20495;-82
2022/07/30 02:06:58;;;;;;;17.37;12.03;;;;;;;15.12;95.63;101639.13;5078528;28;20043;-82
2022/07/30 02:09:30;;;;;;;20.53;13.80;;;;;;;15.03;96.43;101646.75;5078853;28;20380;-82
2022/07/30 02:14:51;;;;;;;22.23;14.03;;;;;;;14.94;96.86;101648.91;5079370;28;20121;-82
2022/07/30 02:17:22;;;;;;;22.00;16.50;;;;;;;15.01;98.14;101646.13;5077545;28;20086;-82
2022/07/30 02:19:52;;;;;;;22.10;16.00;;;;;;;14.97;98.51;101647.63;5078754;28;20035;-82
2022/07/30 02:22:19;;;;;;;23.27;16.27;;;;;;;14.95;98.43;101645.13;5078536;28;20309;-82
2022/07/30 02:24:48;;;;;;;22.47;15.87;;;;;;;14.90;98.63;101646.84;5078711;28;20105;-82
2022/07/30 02:27:25;;;;;;;24.40;13.73;;;;;;;14.77;96.68;101650.50;5079068;28;20036;-82
2022/07/30 02:29:52;;;;;;;25.33;18.60;;;;;;;14.84;98.64;101640.41;5079207;28;20028;-82
2022/07/30 02:32:22;;;;;;;25.53;18.97;;;;;;;14.87;99.70;101645.41;5060392;28;20052;-82
2022/07/30 02:34:52;;;;;;;26.00;18.23;;;;;;;14.89;99.87;101651.50;5078696;28;20040;-82
2022/07/30 02:37:22;;;;;;;26.40;18.97;;;;;;;14.82;99.75;101650.69;5078298;28;20284;-82
2022/07/30 02:39:49;;;;;;;25.63;19.50;;;;;;;14.80;100.00;101650.91;5078610;28;20126;-82
2022/07/30 02:42:16;;;;;;;28.27;18.97;;;;;;;14.81;100.00;101657.19;5080086;28;20032;-82
2022/07/30 02:44:44;;;;;;;26.20;19.50;;;;;;;14.76;100.00;101654.31;5082660;28;20039;-82
2022/07/30 02:47:12;;;;;;;25.73;19.10;;;;;;;14.74;100.00;101646.34;5081870;28;20039;-82
2022/07/30 02:49:39;;;;;;;27.20;19.33;;;;;;;14.73;100.00;101643.81;5082144;28;20093;-82
2022/07/30 02:52:07;;;;;;;25.93;18.73;;;;;;;14.72;100.00;101653.91;5064374;28;20349;-82
2022/07/30 02:54:36;;;;;;;24.33;17.30;;;;;;;14.71;100.00;101643.22;5063709;28;20031;-82
2022/07/30 02:57:03;;;;;;;24.03;18.13;;;;;;;14.64;99.39;101641.34;5083029;28;20040;-82
2022/07/30 02:59:30;;;;;;;23.00;18.00;;;;;;;14.65;99.25;101639.47;5082309;28;20039;-82
2022/07/30 03:01:57;;;;;;;22.90;17.20;;;;;;;14.64;98.20;101643.25;5064124;28;20128;-82
2022/07/30 03:04:23;;;;;;;22.73;17.00;;;;;;;14.60;98.16;101645.53;5081693;28;20067;-82
2022/07/30 03:06:49;;;;;;;23.30;16.50;;;;;;;14.60;98.47;101650.16;5048477;28;20567;-82
2022/07/30 03:09:16;;;;;;;25.77;18.90;;;;;;;14.63;99.52;101652.47;5082207;28;20058;-82
2022/07/30 03:11:42;;;;;;;22.40;17.50;;;;;;;14.51;99.19;101647.69;5073836;28;20035;-82
2022/07/30 03:14:09;;;;;;;24.90;18.87;;;;;;;14.56;99.55;101662.56;5081623;28;20036;-82
2022/07/30 03:16:37;;;;;;;24.37;18.93;;;;;;;14.48;99.82;101659.06;5081731;28;20380;-82
2022/07/30 03:19:08;;;;;;;25.23;19.53;;;;;;;14.49;99.91;101662.59;5082327;28;20032;-82
2022/07/30 03:21:36;;;;;;;23.13;17.80;;;;;;;14.47;99.34;101667.44;5081711;28;20058;-82
2022/07/30 03:24:03;;;;;;;23.37;17.67;;;;;;;14.50;99.01;101667.00;5082257;28;20263;-82
2022/07/30 03:26:30;;;;;;;28.40;20.20;;;;;;;14.52;100.00;101668.47;5063563;28;20136;-81
2022/07/30 03:28:56;;;;;;;24.67;19.73;;;;;;;14.45;100.00;101662.19;5082190;28;20100;-82
2022/07/30 03:31:22;;;;;;;24.33;18.37;;;;;;;14.28;98.42;101656.44;5081745;28;20550;-82
2022/07/30 03:33:49;;;;;;;25.90;18.30;;;;;;;14.41;99.18;101651.97;5081381;28;20030;-82
2022/07/30 03:36:15;;;;;;;26.53;20.23;;;;;;;14.33;99.90;101662.06;5081409;28;20455;-81
2022/07/30 03:38:42;;;;;;;30.90;22.53;;;;;;;14.38;100.00;101661.41;5076562;28;20061;-81
2022/07/30 03:41:09;;;;;;;26.37;19.43;;;;;;;14.37;100.00;101664.34;5082246;28;20032;-82
2022/07/30 03:43:38;;;;;;;24.90;20.33;;;;;;;14.29;99.77;101655.38;5081888;28;20136;-81
2022/07/30 03:46:04;;;;;;;23.87;18.53;;;;;;;14.30;99.09;101667.09;5081590;28;20032;-82
2022/07/30 03:48:32;;;;;;;24.90;17.70;;;;;;;14.19;98.43;101649.53;5081429;28;20590;-81
2022/07/30 03:50:58;;;;;;;25.77;17.57;;;;;;;14.23;96.95;101658.97;5081383;28;20624;-81
2022/07/30 03:53:24;;;;;;;24.13;18.80;;;;;;;14.19;97.72;101665.88;5059250;28;20773;-81
2022/07/30 03:55:51;;;;;;;21.23;16.73;;;;;;;14.14;97.43;101663.81;5081053;28;20426;-81
2022/07/30 03:58:19;;;;;;;28.03;21.77;;;;;;;14.23;99.61;101669.84;5081403;28;20047;-81
2022/07/30 04:00:49;;;;;;;25.00;19.60;;;;;;;14.16;99.97;101677.22;5080800;28;20495;-81
2022/07/30 04:03:29;;;;;;;30.33;24.20;;;;;;;14.14;100.00;101655.66;5080638;28;20100;-81
2022/07/30 04:05:55;;;;;;;28.30;23.77;;;;;;;14.17;100.00;101667.97;5080956;28;20353;-81
2022/07/30 04:08:20;;;;;;;33.27;25.37;;;;;;;14.22;100.00;101681.81;5080981;28;20614;-81
2022/07/30 04:10:47;;;;;;;30.53;23.67;;;;;;;14.17;100.00;101679.75;5080998;28;21174;-81
2022/07/30 04:13:12;;;;;;;33.80;24.87;;;;;;;14.15;100.00;101687.28;5071842;28;20043;-81
2022/07/30 04:15:48;;;;;;;30.33;24.33;;;;;;;14.13;100.00;101691.28;5081629;28;20060;-81
2022/07/30 04:18:15;;;;;;;29.47;24.63;;;;;;;14.13;100.00;101688.53;5081027;28;20032;-81
2022/07/30 04:20:44;;;;;;;30.00;24.83;;;;;;;14.10;100.00;101687.13;5062723;28;20698;-81
2022/07/30 04:23:11;;;;;;;29.93;26.43;;;;;;;14.05;100.00;101683.34;5081480;28;20032;-81
2022/07/30 04:25:39;;;;;;;33.17;27.17;;;;;;;14.12;100.00;101697.78;5080994;28;20028;-84
2022/07/30 04:28:05;;;;;;;31.67;26.93;;;;;;;14.11;100.00;101696.09;5080750;28;20115;-81
2022/07/30 04:30:33;;;;;;;33.57;26.60;;;;;;;14.09;100.00;101692.75;5061433;28;20472;-81
2022/07/30 04:32:59;;;;;;;32.07;27.43;;;;;;;14.12;100.00;101697.78;5079345;28;20486;-81
2022/07/30 04:35:29;;;;;;;32.07;27.73;;;;;;;14.10;100.00;101689.84;5062333;28;20089;-81
2022/07/30 04:37:55;;;;;;;34.67;27.10;;;;;;;14.12;100.00;101695.06;5080137;28;20086;-81
2022/07/30 04:40:20;;;;;;;33.07;27.10;;;;;;;14.13;100.00;101704.91;5080216;28;20527;-81
2022/07/30 04:42:46;;;;;;;31.90;27.20;;;;;;;14.09;100.00;101695.47;5080275;28;20177;-81
2022/07/30 04:45:11;;;;;;;32.13;25.60;;;;;;;14.11;100.00;101709.75;5080149;28;20040;-81
2022/07/30 04:47:37;;;;;;;30.90;26.20;;;;;;;14.11;100.00;101707.84;5079666;28;20028;-81
2022/07/30 04:50:06;;;;;;;29.83;25.80;;;;;;;14.13;100.00;101719.38;5080640;28;20115;-81
2022/07/30 04:52:32;;;;;;;29.67;24.70;;;;;;;14.13;100.00;101715.78;5072981;28;20086;-81
2022/07/30 04:55:03;;;;;;;29.97;24.30;;;;;;;14.14;100.00;101709.31;5079601;28;20032;-81
2022/07/30 04:57:30;;;;;;;29.10;24.67;;;;;;;14.19;100.00;101714.94;5079921;28;20039;-81
2022/07/30 04:59:56;;;;;;;30.30;25.07;;;;;;;14.26;100.00;101715.75;5080327;28;20748;-82
2022/07/30 05:02:25;;;;;;;27.97;24.03;;;;;;;14.31;100.00;101718.69;5079887;28;20032;-81
2022/07/30 05:04:51;;;;;;;31.07;24.63;;;;;;;14.33;100.00;101719.31;5061039;28;20455;-82
2022/07/30 05:07:18;;;;;;;30.83;24.70;;;;;;;14.32;100.00;101725.81;5079083;28;20039;-81
2022/07/30 05:09:44;;;;;;;32.27;24.37;;;;;;;14.35;100.00;101735.44;5079338;28;20056;-82
2022/07/30 05:12:09;;;;;;;27.47;24.10;;;;;;;14.37;100.00;101727.06;5079623;28;20028;-81
2022/07/30 05:14:35;;;;;;;30.73;23.93;;;;;;;14.39;100.00;101733.13;5080894;28;20051;-81
2022/07/30 05:17:00;;;;;;;26.90;22.40;;;;;;;14.41;100.00;101725.56;5077818;28;20436;-82
2022/07/30 05:19:26;;;;;;;28.17;22.97;;;;;;;14.43;100.00;101734.34;5079873;28;20074;-82
2022/07/30 05:21:51;;;;;;;30.30;23.70;;;;;;;14.48;100.00;101740.00;5079421;28;20039;-82
2022/07/30 05:24:17;;;;;;;28.23;22.90;;;;;;;14.50;100.00;101736.00;5079844;28;20107;-82
2022/07/30 05:26:43;;;;;;;27.03;21.37;;;;;;;14.53;100.00;101738.28;5079722;28;20089;-82
2022/07/30 05:29:08;;;;;;;29.63;22.77;;;;;;;14.61;100.00;101739.94;5078443;28;20082;-82
2022/07/30 05:31:34;;;;;;;25.87;21.57;;;;;;;14.59;100.00;101730.31;5078676;28;20376;-82
2022/07/30 05:33:59;;;;;;;26.30;22.00;;;;;;;14.65;100.00;101735.75;5079586;28;20377;-82
2022/07/30 05:36:25;;;;;;;26.77;21.10;;;;;;;14.69;100.00;101734.28;5079366;28;20595;-82
2022/07/30 05:38:50;;;;;;;27.57;20.37;;;;;;;14.75;100.00;101735.28;5078730;28;20482;-82
2022/07/30 05:41:15;;;;;;;26.33;21.20;;;;;;;14.79;100.00;101732.97;5077482;28;20035;-82
2022/07/30 05:43:41;;;;;;;28.53;20.70;;;;;;;14.85;100.00;101732.13;5089533;28;20032;-82
2022/07/30 05:46:06;;;;;;;27.97;20.40;;;;;;;14.88;100.00;101728.94;5077465;28;20036;-82
2022/07/30 05:48:34;;;;;;;28.93;20.93;;;;;;;14.98;100.00;101750.28;5072290;28;20430;-82
2022/07/30 05:51:00;;;;;;;26.87;20.00;;;;;;;15.04;100.00;101746.69;5078274;28;20036;-82
2022/07/30 05:53:26;;;;;;;28.73;19.40;;;;;;;15.18;100.00;101758.34;5078695;28;20044;-82
2022/07/30 05:55:51;;;;;;;29.87;19.97;;;;;;;15.20;100.00;101748.03;5079157;28;20035;-82
2022/07/30 05:58:17;;;;;;;24.63;19.30;;;;;;;15.28;100.00;101750.50;5078695;28;20028;-82
2022/07/30 06:00:42;;;;;;;25.57;19.50;;;;;;;15.33;100.00;101749.84;5079784;28;20521;-82
2022/07/30 06:03:07;;;;;;;27.63;17.87;;;;;;;15.37;100.00;101759.28;5078860;28;20039;-82
2022/07/30 06:05:33;;;;;;;25.33;18.30;;;;;;;15.43;100.00;101749.34;5079589;28;20032;-83
2022/07/30 06:07:59;;;;;;;25.27;18.10;;;;;;;15.41;100.00;101738.66;5079041;28;20060;-82
2022/07/30 06:10:25;;;;;;;24.30;16.97;;;;;;;15.51;100.00;101751.78;5079105;28;20074;-83
2022/07/30 06:12:50;;;;;;;22.07;16.93;;;;;;;15.43;100.00;101743.88;5078837;28;20043;-82
2022/07/30 06:15:15;;;;;;;20.07;16.30;;;;;;;15.64;100.00;101769.97;5078374;28;20121;-83
2022/07/30 06:17:45;;;;;;;20.33;14.80;;;;;;;15.68;99.84;101769.31;5078202;28;20104;-82
2022/07/30 06:20:11;;;;;;;25.20;15.57;;;;;;;15.75;99.79;101760.19;5060785;28;20467;-83
2022/07/30 06:22:37;;;;;;;24.27;15.07;;;;;;;15.76;99.47;101762.72;5078710;28;20031;-83
2022/07/30 06:25:02;;;;;;;23.50;16.23;;;;;;;15.86;99.05;101765.81;5079204;28;20063;-83
2022/07/30 06:27:28;;;;;;;19.60;14.30;;;;;;;15.94;98.59;101766.56;5078737;28;20195;-83
2022/07/30 06:29:53;;;;;;;21.57;14.77;;;;;;;16.07;99.34;101766.44;5078722;28;20143;-83
2022/07/30 06:32:18;;;;;;;20.73;13.83;;;;;;;16.18;98.37;101776.66;5079246;28;20056;-83
2022/07/30 06:34:44;;;;;;;17.90;13.60;;;;;;;16.22;98.03;101766.06;5078684;28;20040;-83
2022/07/30 06:37:10;;;;;;;21.20;13.00;;;;;;;16.38;96.72;101779.13;5077963;28;20046;-83
2022/07/30 06:39:35;;;;;;;19.67;11.73;;;;;;;16.46;96.00;101786.22;5077989;28;20038;-82
2022/07/30 06:42:01;;;;;;;17.00;11.70;;;;;;;16.49;94.89;101790.38;5058597;28;20516;-83
2022/07/30 06:44:26;;;;;;;19.70;11.83;;;;;;;16.56;95.42;101782.94;5078285;28;20150;-84
2022/07/30 06:46:51;;;;;;;17.90;12.43;;;;;;;16.67;95.52;101784.91;5060289;28;20224;-84
2022/07/30 06:49:17;;;;;;;18.87;12.13;;;;;;;16.75;94.30;101777.44;5078293;28;20097;-83
2022/07/30 06:51:42;;;;;;;14.97;10.33;;;;;;;16.75;93.19;101777.44;5058966;28;20028;-83
2022/07/30 06:54:07;;;;;;;15.27;10.73;;;;;;;16.84;91.92;101789.75;5078388;28;20115;-83
2022/07/30 06:56:33;;;;;;;17.23;11.00;;;;;;;16.96;92.24;101787.94;5078709;28;20042;-84
2022/07/30 06:58:58;;;;;;;17.30;10.20;;;;;;;16.96;90.98;101782.47;5078497;28;20036;-83
2022/07/30 07:01:23;;;;;;;16.33;10.30;;;;;;;17.03;91.99;101783.19;5078759;28;20059;-83
2022/07/30 07:03:49;;;;;;;18.60;10.17;;;;;;;17.07;91.22;101788.19;5059554;28;20127;-83
2022/07/30 07:06:14;;;;;;;14.90;9.73;;;;;;;17.15;90.00;101779.69;5078717;28;20040;-83
2022/07/30 07:08:40;;;;;;;15.27;9.80;;;;;;;17.21;90.77;101790.50;5077730;28;20123;-83
2022/07/30 07:11:05;;;;;;;17.33;9.47;;;;;;;17.14;88.95;101778.00;5060434;28;20055;-82
2022/07/30 07:13:31;;;;;;;14.87;9.53;;;;;;;17.32;89.63;101786.13;5078544;28;20042;-83
2022/07/30 07:15:57;;;;;;;14.57;8.07;;;;;;;17.40;88.13;101782.22;5078040;28;20463;-83
2022/07/30 07:18:22;;;;;;;10.43;5.63;;;;;;;17.58;84.47;101794.19;5077703;28;20067;-83
2022/07/30 07:20:48;;;;;;;10.53;5.83;;;;;;;17.57;83.07;101793.38;5072642;28;20039;-84
2022/07/30 07:23:13;;;;;;;10.07;5.40;;;;;;;17.56;82.08;101788.94;5078080;28;20035;-83
2022/07/30 07:25:39;;;;;;;10.30;5.60;;;;;;;17.51;81.78;101789.63;5077224;28;20170;-83
2022/07/30 07:28:06;;;;;;;8.97;5.30;;;;;;;17.63;81.52;101795.13;5061525;28;20256;-84
2022/07/30 07:30:32;;;;;;;12.07;4.93;;;;;;;17.71;79.62;101778.34;5081766;28;20387;-83
2022/07/30 07:32:57;;;;;;;9.80;5.40;;;;;;;17.80;78.90;101794.44;5082128;28;20068;-83
2022/07/30 07:35:23;;;;;;;10.77;5.47;;;;;;;17.97;80.27;101791.88;5088720;28;20074;-83
2022/07/30 07:37:48;;;;;;;9.50;5.20;;;;;;;18.09;79.48;101791.84;5073316;28;20026;-84
2022/07/30 07:40:14;;;;;;;11.47;4.97;;;;;;;18.29;80.26;101800.56;5098562;28;20460;-83
2022/07/30 07:42:39;;;;;;;9.50;5.07;;;;;;;18.35;78.14;101785.88;5083388;28;20115;-83
2022/07/30 07:45:05;;;;;;;9.53;4.60;;;;;;;18.58;76.41;101797.03;5061706;28;20074;-83
2022/07/30 07:47:30;;;;;;;6.75;4.60;;;;;;;18.82;76.53;101800.53;5081180;28;20036;-83
2022/07/30 07:49:56;;;;;;;7.72;4.25;;;;;;;18.94;73.96;101798.63;5081437;28;20115;-83
2022/07/30 07:52:21;;;;;;;7.00;3.90;;;;;;;19.02;71.81;101780.91;5080890;28;20067;-83
2022/07/30 07:54:46;;;;;;;11.18;4.18;;;;;;;19.21;73.11;101795.28;5081036;28;20035;-83
2022/07/30 07:57:12;;;;;;;8.52;3.92;;;;;;;19.22;73.69;101792.28;5081398;28;20074;-83
2022/07/30 07:59:37;;;;;;;9.60;3.85;;;;;;;19.36;72.05;101795.53;5081465;28;20125;-83
2022/07/30 08:02:03;;;;;;;8.05;4.43;;;;;;;19.29;71.90;101792.13;5081236;28;20152;-83
2022/07/30 08:04:28;;;;;;;8.15;3.75;;;;;;;19.32;72.86;101797.13;5080642;28;20051;-83
2022/07/30 08:06:53;;;;;;;9.48;4.30;;;;;;;19.20;71.87;101799.09;5080970;28;20039;-83
2022/07/30 08:09:19;;;;;;;10.20;3.88;;;;;;;19.28;69.88;101784.97;5068891;28;20079;-83
2022/07/30 08:11:44;;;;;;;9.05;4.00;;;;;;;19.38;69.82;101790.66;5084173;28;20043;-84
2022/07/30 08:14:10;;;;;;;8.52;3.92;;;;;;;19.54;70.24;101788.16;5086023;28;20085;-84
2022/07/30 08:16:35;;;;;;;7.65;3.60;;;;;;;19.70;69.67;101786.50;5079741;28;20040;-83
2022/07/30 08:19:00;;;;;;;8.80;3.30;;;;;;;19.93;69.26;101792.94;5080993;28;20032;-84
2022/07/30 08:21:26;;;;;;;7.18;3.63;;;;;;;20.04;69.66;101781.00;5080299;28;20042;-84
2022/07/30 08:23:51;;;;;;;9.15;3.95;;;;;;;20.02;67.24;101789.50;5080562;28;20109;-83
2022/07/30 08:26:17;;;;;;;6.85;3.90;;;;;;;20.28;67.47;101786.25;5080607;28;20463;-83
2022/07/30 08:28:42;;;;;;;6.32;3.78;;;;;;;20.31;67.00;101797.59;5061545;28;20048;-83
2022/07/30 08:31:08;;;;;;;9.65;3.35;;;;;;;20.40;67.17;101801.59;5080763;28;20482;-83
2022/07/30 08:33:34;;;;;;;6.45;3.35;;;;;;;20.10;64.33;101807.50;5079023;28;20134;-83
2022/07/30 08:36:00;;;;;;;8.00;3.70;;;;;;;20.00;64.84;101796.34;5080603;28;20036;-83
2022/07/30 08:38:25;;;;;;;7.28;3.40;;;;;;;20.31;65.47;101785.78;5080165;28;20115;-83
2022/07/30 08:40:54;;;;;;;8.73;3.70;;;;;;;20.55;66.86;101791.88;5079370;28;20354;-84
2022/07/30 08:43:20;;;;;;;5.18;3.25;;;;;;;21.00;64.43;101793.50;5080120;28;20119;-84
2022/07/30 08:45:46;;;;;;;8.88;3.55;;;;;;;21.00;62.57;101806.47;5080406;28;20561;-83
2022/07/30 08:48:12;;;;;;;7.72;3.40;;;;;;;21.26;62.61;101802.03;5088545;28;20047;-84
2022/07/30 08:50:38;;;;;;;7.00;3.42;;;;;;;21.51;62.57;101803.38;5084923;28;20433;-82
2022/07/30 08:53:04;;;;;;;8.30;3.83;;;;;;;21.65;60.66;101806.53;5087259;28;20476;-83
2022/07/30 08:55:30;;;;;;;9.07;3.60;;;;;;;21.87;60.63;101800.94;5086272;28;20027;-83
2022/07/30 08:57:56;;;;;;;10.32;3.90;;;;;;;22.05;60.92;101807.94;5080206;28;20357;-84
2022/07/30 09:00:21;;;;;;;4.15;2.45;;;;;;;22.10;55.91;101805.22;5080171;28;20507;-83
2022/07/30 09:02:47;;;;;;;6.53;2.92;;;;;;;22.36;56.61;101803.47;5080033;28;20032;-84
2022/07/30 09:05:12;;;;;;;5.80;2.70;;;;;;;22.49;56.28;101809.59;5079839;28;20125;-84
2022/07/30 09:07:38;;;;;;;3.80;2.42;;;;;;;22.37;54.10;101807.03;5079717;28;20036;-83
2022/07/30 09:10:05;;;;;;;4.45;2.20;;;;;;;22.65;52.46;101785.66;5079893;28;20083;-85
2022/07/30 09:12:35;;;;;;;4.47;2.33;;;;;;;23.17;53.63;101797.69;5080183;28;20035;-85
2022/07/30 09:15:08;;;;;;;5.07;2.53;;;;;;;23.48;53.78;101804.06;5079859;28;20039;-84
2022/07/30 09:17:57;;;;;;;6.85;2.60;;;;;;;23.91;54.49;101804.63;5079602;28;20036;-84
2022/07/30 09:20:26;;;;;;;6.68;2.50;;;;;;;23.93;51.82;101807.13;5079419;28;20032;-85
2022/07/30 09:22:56;;;;;;;7.13;2.50;;;;;;;24.16;49.97;101810.41;5079665;28;20421;-84
2022/07/30 09:25:36;;;;;;;6.68;2.67;;;;;;;24.66;52.14;101810.56;5079208;28;20032;-84
2022/07/30 09:28:02;;;;;;;5.20;2.53;;;;;;;24.16;47.12;101819.53;5061040;28;20222;-84
2022/07/30 09:30:42;;;;;;;4.95;2.60;;;;;;;24.46;49.80;101814.19;5088776;28;20523;-86
2022/07/30 09:33:08;;;;;;;7.25;2.30;;;;;;;24.32;46.05;101817.56;5084219;28;20487;-86
2022/07/30 09:35:33;;;;;;;7.43;2.10;;;;;;;24.48;45.90;101814.72;5075134;28;20032;-85
2022/07/30 09:37:59;;;;;;;5.40;2.25;;;;;;;24.52;46.48;101819.44;5073076;28;20134;-84
2022/07/30 09:40:25;;;;;;;4.95;2.20;;;;;;;24.70;47.89;101820.78;5073161;28;20070;-84
2022/07/30 09:43:04;;;;;;;5.47;2.20;;;;;;;24.87;47.35;101814.03;5055395;28;20116;-83
2022/07/30 09:45:30;;;;;;;5.97;2.30;;;;;;;24.53;46.43;101812.75;5074613;28;20040;-85
2022/07/30 09:47:55;;;;;;;4.97;2.20;;;;;;;24.23;45.86;101816.47;5074282;28;21269;-84
2022/07/30 09:50:23;;;;;;;4.93;2.40;;;;;;;24.34;45.85;101818.09;5072760;28;20058;-83
2022/07/30 09:52:49;;;;;;;5.93;2.00;;;;;;;24.46;46.99;101808.66;5074022;28;20094;-85
2022/07/30 09:55:29;;;;;;;3.55;2.05;;;;;;;24.84;49.19;101809.88;5073497;28;20031;-85
2022/07/30 09:57:57;;;;;;;4.00;2.03;;;;;;;24.91;45.17;101815.13;5072581;28;20370;-84
2022/07/30 10:00:25;;;;;;;4.57;2.20;;;;;;;25.28;45.83;101811.00;5067318;28;20050;-85
2022/07/30 10:02:52;;;;;;;4.18;2.40;;;;;;;25.34;43.85;101800.75;5073908;28;20040;-84
2022/07/30 10:05:18;;;;;;;4.03;2.40;;;;;;;25.12;44.02;101804.75;5073675;28;20551;-84
2022/07/30 10:07:49;;;;;;;3.15;1.77;;;;;;;25.04;43.71;101799.81;5072937;28;20903;-85
2022/07/30 10:10:16;;;;;;;3.22;1.75;;;;;;;25.19;43.71;101799.72;5073507;28;20196;-84
2022/07/30 10:12:44;;;;;;;2.78;1.90;;;;;;;24.86;43.62;101790.19;5073766;28;20093;-85
2022/07/30 10:15:10;;;;;;;4.38;2.15;;;;;;;24.99;42.58;101800.66;5054607;28;20050;-84
2022/07/30 10:17:37;;;;;;;4.65;2.13;;;;;;;25.00;42.70;101796.78;5073588;28;20048;-84
2022/07/30 10:20:07;;;;;;;2.92;2.00;;;;;;;24.95;43.68;101799.56;5074357;28;20139;-85
2022/07/30 10:22:34;;;;;;;3.67;2.00;;;;;;;25.55;43.99;101790.31;5073731;28;20107;-85
2022/07/30 10:25:01;;;;;;;4.05;1.90;;;;;;;25.77;42.29;101790.66;5073055;28;20038;-84
2022/07/30 10:27:26;;;;;;;5.32;1.80;;;;;;;25.69;43.45;101785.75;5073712;28;20036;-84
2022/07/30 10:29:53;;;;;;;2.60;2.13;;;;;;;25.38;42.46;101793.50;5073337;28;20233;-86
2022/07/30 10:32:19;;;;;;;4.15;2.13;;;;;;;25.78;43.43;101788.72;5072420;28;20032;-85
2022/07/30 10:34:45;;;;;;;4.82;1.90;;;;;;;26.05;43.30;101796.50;5052737;28;20036;-85
2022/07/30 10:37:15;;;;;;;2.30;1.65;;;;;;;25.74;42.09;101793.19;5072911;28;20365;-84
2022/07/30 10:40:19;;;;;;;3.67;2.10;;;;;;;26.20;42.44;101789.97;5072729;28;20423;-84
2022/07/30 10:43:29;;;;;;;4.15;2.03;;;;;;;25.91;42.95;101798.31;5073429;28;20036;-84
2022/07/30 10:46:14;;;;;;;3.97;2.15;;;;;;;25.91;43.05;101795.53;5076045;28;20695;-85
2022/07/30 10:48:40;;;;;;;6.07;2.13;;;;;;;25.51;41.88;101790.03;5078095;28;20089;-84
2022/07/30 10:51:05;;;;;;;3.25;1.80;;;;;;;25.75;41.73;101792.88;5101822;28;20131;-84
2022/07/30 10:53:45;;;;;;;3.72;1.80;;;;;;;26.28;43.24;101788.50;5073811;28;20111;-86
2022/07/30 10:56:22;;;;;;;5.50;2.20;;;;;;;26.02;42.65;101802.66;5084344;28;20094;-84
2022/07/30 10:59:08;;;;;;;3.30;1.90;;;;;;;25.93;43.28;101796.06;5072819;28;20055;-85
2022/07/30 11:01:46;;;;;;;4.82;2.10;;;;;;;26.02;42.19;101788.78;5074194;28;20111;-84
2022/07/30 11:04:27;;;;;;;2.95;2.13;;;;;;;25.76;42.54;101793.75;5076546;28;20040;-84
2022/07/30 11:07:28;;;;;;;5.78;2.30;;;;;;;26.13;43.52;101795.06;5077541;28;20110;-85
2022/07/30 11:09:55;;;;;;;15.18;3.10;;;;;;;26.01;43.38;101794.59;5075469;28;20055;-86
2022/07/30 11:12:40;;;;;;;3.97;2.30;;;;;;;26.09;45.04;101786.47;5075414;28;20051;-85
2022/07/30 11:15:05;;;;;;;4.35;2.20;;;;;;;25.88;42.44;101787.78;5077001;28;20040;-85
2022/07/30 11:17:56;;;;;;;3.42;1.90;;;;;;;26.26;42.15;101793.50;5077224;28;20062;-85
2022/07/30 11:20:22;;;;;;;3.95;2.05;;;;;;;26.55;41.92;101792.63;5077611;28;20032;-85